Αναφορές METAR Αεροδρομίων

 

LGTS - THESSALONIKI - GREECE
Ενημερώθηκε: 12/07/2020 06:50
Αίθριος
Αίθριος
 Ανεμος από varies
Ανεμος: varies 4 km/h
Θερμοκρασία: 20°C
Σημείο Δρόσου: 16°C
Υγρασία: 78%
Βαρόμετρο: 1011 hPa
Περίληψη: Αίθριος
Visibility: greater than 10 km
2020/07/12 03:50 LGTS 120350Z VRB02KT CAVOK 20/16 Q1011 NOSIG
LGLR - LARTISA - GREECE
Ενημερώθηκε: 12/07/2020 06:50
Αίθριος
Αίθριος
 Ανεμος από calm
Ανεμος: Απνοια
Θερμοκρασία: 17°C
Σημείο Δρόσου: 14°C
Υγρασία: 83%
Βαρόμετρο: 1012 hPa
Περίληψη: Αίθριος
Visibility: greater than 10 km
2020/07/12 03:50 LGLR 120350Z 00000KT CAVOK 17/14 Q1012 BLU
 
LGKZ - KOZANI - GREECE
Ενημερώθηκε: 12/07/2020 06:50
Αίθριος
Αίθριος
 Ανεμος από Β
Ανεμος: Β 7 km/h
Θερμοκρασία: 17°C
Σημείο Δρόσου: 14°C
Υγρασία: 83%
Βαρόμετρο: 1015 hPa
Περίληψη: Αίθριος
Visibility: greater than 10 km
2020/07/12 03:50 LGKZ 120350Z 35004KT CAVOK 17/14 Q1015
LGKV - KAVALA - GREECE
Ενημερώθηκε: 12/07/2020 06:50
Αίθριος
Αίθριος
 Ανεμος από calm
Ανεμος: Απνοια
Θερμοκρασία: 20°C
Σημείο Δρόσου: 17°C
Υγρασία: 83%
Βαρόμετρο: 1011 hPa
Περίληψη: Αίθριος
Visibility: greater than 10 km
2020/07/12 03:50 LGKV 120350Z 00000KT CAVOK 20/17 Q1011
 
LGIO - IOANNINA - GREECE
Ενημερώθηκε: 12/07/2020 06:50

 Ανεμος από varies
Ανεμος: varies 2 km/h
Θερμοκρασία: 15°C
Σημείο Δρόσου: 14°C
Υγρασία: 94%
Βαρόμετρο: 1014 hPa
2020/07/12 03:50 LGIO 120350Z AUTO VRB01KT //// // ////// 15/14 Q1014 RE//
LGBL - BOLOS - GREECE
Ενημερώθηκε: 12/07/2020 06:50
Αίθριος
Αίθριος
 Ανεμος από ΔΝΔ
Ανεμος: ΔΝΔ 9 km/h
Θερμοκρασία: 19°C
Σημείο Δρόσου: 13°C
Υγρασία: 68%
Βαρόμετρο: 1012 hPa
Περίληψη: Αίθριος
Visibility: greater than 10 km
2020/07/12 03:50 LGBL 120350Z 24005KT CAVOK 19/13 Q1012
 
LGMT - MITILINI - GREECE
Ενημερώθηκε: 12/07/2020 06:50
Αίθριος
Αίθριος
 Ανεμος από ΒΔ
Ανεμος: ΒΔ 13 km/h
Θερμοκρασία: 24°C
Σημείο Δρόσου: 18°C
Υγρασία: 69%
Βαρόμετρο: 1009 hPa
Περίληψη: Αίθριος
Visibility: greater than 10 km
2020/07/12 03:50 LGMT 120350Z 31007KT CAVOK 24/18 Q1009
LGAV - ATHENS - GREECE
Ενημερώθηκε: 12/07/2020 06:50
Αίθριος
Αίθριος
 Ανεμος από calm
Ανεμος: Απνοια
Θερμοκρασία: 23°C
Σημείο Δρόσου: 14°C
Υγρασία: 57%
Βαρόμετρο: 1011 hPa
Περίληψη: Αίθριος
Visibility: greater than 10 km
2020/07/12 03:50 LGAV 120350Z 00000KT CAVOK 23/14 Q1011 NOSIG
 
LGRP - RODOS - GREECE
Ενημερώθηκε: 12/07/2020 06:50
Αραιές Νεφώσεις
Αραιές Νεφώσεις
 Ανεμος από ΔΝΔ
Ανεμος: ΔΝΔ 26 km/h
Θερμοκρασία: 24°C
Σημείο Δρόσου: 22°C
Υγρασία: 89%
Βαρόμετρο: 1005 hPa
Clouds: Αραιές Νεφώσεις
Visibility: 10 km
Cloud details: Αραιές Νεφώσεις 549 m
2020/07/12 03:50 LGRP 120350Z 24014KT 9999 FEW018 24/22 Q1005 NOSIG
LGIR - HRAKLIO/KRITI - GREECE
Ενημερώθηκε: 12/07/2020 06:50
Αίθριος
Αίθριος
 Ανεμος από ΒΔ
Ανεμος: ΒΔ 28 km/h
Θερμοκρασία: 25°C
Σημείο Δρόσου: 18°C
Υγρασία: 65%
Βαρόμετρο: 1010 hPa
Περίληψη: Αίθριος
Visibility: greater than 10 km
2020/07/12 03:50 LGIR 120350Z 31015KT CAVOK 25/18 Q1010 NOSIG
 
LGMK - MIKONOS - GREECE
Ενημερώθηκε: 12/07/2020 06:50
Αραιές Νεφώσεις
Αραιές Νεφώσεις
 Ανεμος από varies
Ανεμος: varies 0 km/h
Θερμοκρασία: 22°C
Σημείο Δρόσου: 17°C
Υγρασία: 73%
Βαρόμετρο: 1009 hPa
Clouds: Αραιές Νεφώσεις
Visibility: 10 km
Cloud details: Αραιές Νεφώσεις 305 m
2020/07/12 03:50 LGMK 120350Z /////KT 9999 FEW010 22/17 Q1009
LGKR - KERKIRA - GREECE
Ενημερώθηκε: 12/07/2020 06:50
Αίθριος
Αίθριος
 Ανεμος από varies
Ανεμος: varies 0 km/h
Θερμοκρασία: 21°C
Σημείο Δρόσου: 18°C
Υγρασία: 83%
Βαρόμετρο: 1011 hPa
Περίληψη: Αίθριος
Visibility: greater than 10 km
2020/07/12 03:50 LGKR 120350Z /////KT CAVOK 21/18 Q1011 NOSIG